Schedule Details

Flight Number: ASX130
Departure: Warszawa Chopina (EPWA) at 13:10Z
Arrival: Princess Juliana (TNCM) at 22:10Z

Weather Information
EPWA 221800Z 15008KT 4700 -RA BR BKN003 03/02 Q1013 NOSIG
TNCM 221800Z 09006KT 060V130 9999 SCT021TCU 30/23 Q1012 A2990 NOSIG RMK TCU NE

Schedule Frequency

Route Map